sensor_id;sensor_type;location;lat;lon;timestamp;P1;durP1;ratioP1;P2;durP2;ratioP2
14619;SDS011;32125;48.518;9.050;2023-07-13T00:01:37;2.00;;;1.77;;
14619;SDS011;32125;48.518;9.050;2023-07-13T00:04:03;3.63;;;1.60;;
14619;SDS011;32125;48.518;9.050;2023-07-13T00:06:29;1.75;;;1.40;;
14619;SDS011;32125;48.518;9.050;2023-07-13T00:08:58;1.50;;;1.40;;
14619;SDS011;32125;48.518;9.050;2023-07-13T00:11:25;3.97;;;1.50;;
14619;SDS011;32125;48.518;9.050;2023-07-13T00:13:53;1.67;;;1.50;;
14619;SDS011;32125;48.518;9.050;2023-07-13T00:16:18;2.83;;;1.40;;
14619;SDS011;32125;48.518;9.050;2023-07-13T00:18:45;2.40;;;1.70;;
14619;SDS011;32125;48.518;9.050;2023-07-13T00:21:13;2.83;;;1.60;;
14619;SDS011;32125;48.518;9.050;2023-07-13T00:23:40;2.88;;;1.80;;
14619;SDS011;32125;48.518;9.050;2023-07-13T00:26:07;2.10;;;1.40;;
14619;SDS011;32125;48.518;9.050;2023-07-13T00:28:34;2.30;;;1.70;;
14619;SDS011;32125;48.518;9.050;2023-07-13T00:31:00;1.63;;;1.50;;
14619;SDS011;32125;48.518;9.050;2023-07-13T00:33:27;1.50;;;1.40;;
14619;SDS011;32125;48.518;9.050;2023-07-13T00:35:55;1.52;;;1.40;;
14619;SDS011;32125;48.518;9.050;2023-07-13T00:38:22;1.60;;;1.50;;
14619;SDS011;32125;48.518;9.050;2023-07-13T00:40:50;2.65;;;1.77;;
14619;SDS011;32125;48.518;9.050;2023-07-13T00:43:18;3.88;;;1.40;;
14619;SDS011;32125;48.518;9.050;2023-07-13T00:48:18;2.17;;;1.30;;
14619;SDS011;32125;48.518;9.050;2023-07-13T00:50:46;1.52;;;1.40;;
14619;SDS011;32125;48.518;9.050;2023-07-13T00:53:18;1.92;;;1.38;;
14619;SDS011;32125;48.518;9.050;2023-07-13T00:55:45;1.33;;;1.20;;
14619;SDS011;32125;48.518;9.050;2023-07-13T00:58:12;2.08;;;1.40;;
14619;SDS011;32125;48.518;9.050;2023-07-13T01:00:38;1.95;;;1.35;;
14619;SDS011;32125;48.518;9.050;2023-07-13T01:03:04;3.60;;;1.33;;
14619;SDS011;32125;48.518;9.050;2023-07-13T01:05:32;1.75;;;1.40;;
14619;SDS011;32125;48.518;9.050;2023-07-13T01:07:59;1.30;;;1.20;;
14619;SDS011;32125;48.518;9.050;2023-07-13T01:10:26;1.38;;;1.27;;
14619;SDS011;32125;48.518;9.050;2023-07-13T01:12:52;1.27;;;1.17;;
14619;SDS011;32125;48.518;9.050;2023-07-13T01:15:35;5.95;;;1.50;;
14619;SDS011;32125;48.518;9.050;2023-07-13T01:18:03;1.48;;;1.38;;
14619;SDS011;32125;48.518;9.050;2023-07-13T01:20:31;1.20;;;1.10;;
14619;SDS011;32125;48.518;9.050;2023-07-13T01:23:03;2.55;;;1.33;;
14619;SDS011;32125;48.518;9.050;2023-07-13T01:25:34;1.85;;;1.40;;
14619;SDS011;32125;48.518;9.050;2023-07-13T01:28:01;1.70;;;1.30;;
14619;SDS011;32125;48.518;9.050;2023-07-13T01:30:28;1.50;;;1.30;;
14619;SDS011;32125;48.518;9.050;2023-07-13T01:32:55;1.58;;;1.35;;
14619;SDS011;32125;48.518;9.050;2023-07-13T01:35:21;4.32;;;1.50;;
14619;SDS011;32125;48.518;9.050;2023-07-13T01:37:50;2.45;;;1.30;;
14619;SDS011;32125;48.518;9.050;2023-07-13T01:40:19;2.92;;;1.23;;
14619;SDS011;32125;48.518;9.050;2023-07-13T01:42:45;3.65;;;1.40;;
14619;SDS011;32125;48.518;9.050;2023-07-13T01:45:15;2.50;;;1.58;;
14619;SDS011;32125;48.518;9.050;2023-07-13T01:47:41;2.17;;;1.30;;
14619;SDS011;32125;48.518;9.050;2023-07-13T01:50:08;2.20;;;1.35;;
14619;SDS011;32125;48.518;9.050;2023-07-13T01:52:34;4.72;;;1.50;;
14619;SDS011;32125;48.518;9.050;2023-07-13T01:54:59;2.38;;;1.30;;
14619;SDS011;32125;48.518;9.050;2023-07-13T01:57:25;1.63;;;1.30;;
14619;SDS011;32125;48.518;9.050;2023-07-13T01:59:50;2.20;;;1.30;;
14619;SDS011;32125;48.518;9.050;2023-07-13T02:02:19;2.03;;;1.20;;
14619;SDS011;32125;48.518;9.050;2023-07-13T02:04:44;1.73;;;1.43;;
14619;SDS011;32125;48.518;9.050;2023-07-13T02:07:10;2.28;;;1.35;;
14619;SDS011;32125;48.518;9.050;2023-07-13T02:09:40;2.73;;;1.57;;
14619;SDS011;32125;48.518;9.050;2023-07-13T02:12:07;4.13;;;1.30;;
14619;SDS011;32125;48.518;9.050;2023-07-13T02:14:35;2.07;;;1.40;;
14619;SDS011;32125;48.518;9.050;2023-07-13T02:17:01;1.50;;;1.40;;
14619;SDS011;32125;48.518;9.050;2023-07-13T02:19:29;1.30;;;1.20;;
14619;SDS011;32125;48.518;9.050;2023-07-13T02:21:57;1.65;;;1.30;;
14619;SDS011;32125;48.518;9.050;2023-07-13T02:24:23;1.60;;;1.50;;
14619;SDS011;32125;48.518;9.050;2023-07-13T02:26:49;3.20;;;1.42;;
14619;SDS011;32125;48.518;9.050;2023-07-13T02:29:14;2.03;;;1.50;;
14619;SDS011;32125;48.518;9.050;2023-07-13T02:31:42;2.70;;;1.45;;
14619;SDS011;32125;48.518;9.050;2023-07-13T02:34:10;2.30;;;1.50;;
14619;SDS011;32125;48.518;9.050;2023-07-13T02:36:36;5.43;;;1.45;;
14619;SDS011;32125;48.518;9.050;2023-07-13T02:39:03;1.65;;;1.30;;
14619;SDS011;32125;48.518;9.050;2023-07-13T02:41:30;2.10;;;1.40;;
14619;SDS011;32125;48.518;9.050;2023-07-13T02:44:00;2.43;;;1.50;;
14619;SDS011;32125;48.518;9.050;2023-07-13T02:46:33;3.40;;;1.50;;
14619;SDS011;32125;48.518;9.050;2023-07-13T02:49:00;1.73;;;1.27;;
14619;SDS011;32125;48.518;9.050;2023-07-13T02:51:26;2.00;;;1.55;;
14619;SDS011;32125;48.518;9.050;2023-07-13T02:53:52;3.87;;;1.40;;
14619;SDS011;32125;48.518;9.050;2023-07-13T02:56:23;2.90;;;1.40;;
14619;SDS011;32125;48.518;9.050;2023-07-13T02:58:50;3.20;;;1.40;;
14619;SDS011;32125;48.518;9.050;2023-07-13T03:01:17;3.13;;;1.20;;
14619;SDS011;32125;48.518;9.050;2023-07-13T03:03:46;1.60;;;1.37;;
14619;SDS011;32125;48.518;9.050;2023-07-13T03:06:12;4.37;;;1.50;;
14619;SDS011;32125;48.518;9.050;2023-07-13T03:08:41;3.10;;;1.40;;
14619;SDS011;32125;48.518;9.050;2023-07-13T03:11:08;1.60;;;1.50;;
14619;SDS011;32125;48.518;9.050;2023-07-13T03:13:41;3.30;;;1.60;;
14619;SDS011;32125;48.518;9.050;2023-07-13T03:16:07;3.77;;;1.47;;
14619;SDS011;32125;48.518;9.050;2023-07-13T03:18:35;2.17;;;1.40;;
14619;SDS011;32125;48.518;9.050;2023-07-13T03:21:01;4.07;;;1.60;;
14619;SDS011;32125;48.518;9.050;2023-07-13T03:23:27;3.07;;;1.50;;
14619;SDS011;32125;48.518;9.050;2023-07-13T03:26:09;3.60;;;1.70;;
14619;SDS011;32125;48.518;9.050;2023-07-13T03:28:36;1.83;;;1.57;;
14619;SDS011;32125;48.518;9.050;2023-07-13T03:31:09;4.03;;;1.90;;
14619;SDS011;32125;48.518;9.050;2023-07-13T03:33:37;2.93;;;1.70;;
14619;SDS011;32125;48.518;9.050;2023-07-13T03:36:04;4.40;;;1.77;;
14619;SDS011;32125;48.518;9.050;2023-07-13T03:38:31;4.10;;;1.80;;
14619;SDS011;32125;48.518;9.050;2023-07-13T03:40:59;1.73;;;1.13;;
14619;SDS011;32125;48.518;9.050;2023-07-13T03:43:27;1.93;;;1.40;;
14619;SDS011;32125;48.518;9.050;2023-07-13T03:45:53;3.13;;;1.43;;
14619;SDS011;32125;48.518;9.050;2023-07-13T03:48:21;2.07;;;1.50;;
14619;SDS011;32125;48.518;9.050;2023-07-13T03:50:50;4.90;;;1.60;;
14619;SDS011;32125;48.518;9.050;2023-07-13T03:53:18;3.90;;;1.50;;
14619;SDS011;32125;48.518;9.050;2023-07-13T03:55:46;2.90;;;1.30;;
14619;SDS011;32125;48.518;9.050;2023-07-13T03:58:26;1.63;;;1.50;;
14619;SDS011;32125;48.518;9.050;2023-07-13T04:00:56;2.90;;;1.53;;
14619;SDS011;32125;48.518;9.050;2023-07-13T04:03:23;2.97;;;1.60;;
14619;SDS011;32125;48.518;9.050;2023-07-13T04:05:48;3.17;;;1.60;;
14619;SDS011;32125;48.518;9.050;2023-07-13T04:08:15;4.00;;;1.90;;
14619;SDS011;32125;48.518;9.050;2023-07-13T04:10:42;3.17;;;1.57;;
14619;SDS011;32125;48.518;9.050;2023-07-13T04:13:08;1.33;;;1.20;;
14619;SDS011;32125;48.518;9.050;2023-07-13T04:15:34;2.63;;;1.50;;
14619;SDS011;32125;48.518;9.050;2023-07-13T04:18:02;3.00;;;1.60;;
14619;SDS011;32125;48.518;9.050;2023-07-13T04:20:28;2.90;;;1.43;;
14619;SDS011;32125;48.518;9.050;2023-07-13T04:22:55;2.77;;;1.50;;
14619;SDS011;32125;48.518;9.050;2023-07-13T04:25:23;3.90;;;1.53;;
14619;SDS011;32125;48.518;9.050;2023-07-13T04:27:49;1.87;;;1.50;;
14619;SDS011;32125;48.518;9.050;2023-07-13T04:30:16;2.87;;;1.60;;
14619;SDS011;32125;48.518;9.050;2023-07-13T04:32:44;1.83;;;1.47;;
14619;SDS011;32125;48.518;9.050;2023-07-13T04:35:10;2.70;;;1.60;;
14619;SDS011;32125;48.518;9.050;2023-07-13T04:37:37;1.43;;;1.33;;
14619;SDS011;32125;48.518;9.050;2023-07-13T04:40:05;1.57;;;1.27;;
14619;SDS011;32125;48.518;9.050;2023-07-13T04:42:31;1.93;;;1.40;;
14619;SDS011;32125;48.518;9.050;2023-07-13T04:44:59;4.47;;;1.53;;
14619;SDS011;32125;48.518;9.050;2023-07-13T04:47:25;7.17;;;1.77;;
14619;SDS011;32125;48.518;9.050;2023-07-13T04:49:51;2.40;;;1.50;;
14619;SDS011;32125;48.518;9.050;2023-07-13T04:52:19;3.03;;;1.60;;
14619;SDS011;32125;48.518;9.050;2023-07-13T04:54:45;4.53;;;1.63;;
14619;SDS011;32125;48.518;9.050;2023-07-13T04:57:10;2.23;;;1.60;;
14619;SDS011;32125;48.518;9.050;2023-07-13T04:59:39;5.30;;;1.40;;
14619;SDS011;32125;48.518;9.050;2023-07-13T05:02:05;3.67;;;1.60;;
14619;SDS011;32125;48.518;9.050;2023-07-13T05:04:33;3.90;;;1.77;;
14619;SDS011;32125;48.518;9.050;2023-07-13T05:06:59;4.37;;;1.77;;
14619;SDS011;32125;48.518;9.050;2023-07-13T05:09:28;3.83;;;1.60;;
14619;SDS011;32125;48.518;9.050;2023-07-13T05:11:59;4.20;;;1.57;;
14619;SDS011;32125;48.518;9.050;2023-07-13T05:14:29;2.13;;;1.70;;
14619;SDS011;32125;48.518;9.050;2023-07-13T05:16:55;3.20;;;1.60;;
14619;SDS011;32125;48.518;9.050;2023-07-13T05:19:22;1.73;;;1.60;;
14619;SDS011;32125;48.518;9.050;2023-07-13T05:21:48;2.73;;;1.60;;
14619;SDS011;32125;48.518;9.050;2023-07-13T05:24:17;4.70;;;1.63;;
14619;SDS011;32125;48.518;9.050;2023-07-13T05:26:43;3.53;;;1.70;;
14619;SDS011;32125;48.518;9.050;2023-07-13T05:29:09;2.30;;;1.60;;
14619;SDS011;32125;48.518;9.050;2023-07-13T05:31:35;4.03;;;1.57;;
14619;SDS011;32125;48.518;9.050;2023-07-13T05:34:01;2.53;;;1.60;;
14619;SDS011;32125;48.518;9.050;2023-07-13T05:36:27;5.30;;;1.80;;
14619;SDS011;32125;48.518;9.050;2023-07-13T05:38:53;3.67;;;1.80;;
14619;SDS011;32125;48.518;9.050;2023-07-13T05:41:19;2.73;;;1.90;;
14619;SDS011;32125;48.518;9.050;2023-07-13T05:43:44;2.33;;;1.90;;
14619;SDS011;32125;48.518;9.050;2023-07-13T05:46:10;2.23;;;1.83;;
14619;SDS011;32125;48.518;9.050;2023-07-13T05:48:36;2.77;;;1.87;;
14619;SDS011;32125;48.518;9.050;2023-07-13T05:51:02;4.67;;;1.80;;
14619;SDS011;32125;48.518;9.050;2023-07-13T05:53:29;4.60;;;1.90;;
14619;SDS011;32125;48.518;9.050;2023-07-13T05:55:55;5.07;;;1.90;;
14619;SDS011;32125;48.518;9.050;2023-07-13T05:58:24;3.80;;;2.07;;
14619;SDS011;32125;48.518;9.050;2023-07-13T06:01:04;3.53;;;1.97;;
14619;SDS011;32125;48.518;9.050;2023-07-13T06:03:31;5.17;;;1.90;;
14619;SDS011;32125;48.518;9.050;2023-07-13T06:05:57;5.70;;;1.80;;
14619;SDS011;32125;48.518;9.050;2023-07-13T06:08:25;3.77;;;2.03;;
14619;SDS011;32125;48.518;9.050;2023-07-13T06:10:51;3.67;;;1.90;;
14619;SDS011;32125;48.518;9.050;2023-07-13T06:13:16;3.80;;;1.97;;
14619;SDS011;32125;48.518;9.050;2023-07-13T06:15:47;4.37;;;1.90;;
14619;SDS011;32125;48.518;9.050;2023-07-13T06:18:17;2.63;;;1.90;;
14619;SDS011;32125;48.518;9.050;2023-07-13T06:20:43;4.33;;;1.90;;
14619;SDS011;32125;48.518;9.050;2023-07-13T06:23:09;5.83;;;2.07;;
14619;SDS011;32125;48.518;9.050;2023-07-13T06:25:35;2.90;;;1.70;;
14619;SDS011;32125;48.518;9.050;2023-07-13T06:28:03;4.27;;;2.13;;
14619;SDS011;32125;48.518;9.050;2023-07-13T06:30:29;4.13;;;1.90;;
14619;SDS011;32125;48.518;9.050;2023-07-13T06:32:57;3.03;;;1.73;;
14619;SDS011;32125;48.518;9.050;2023-07-13T06:35:23;3.83;;;1.90;;
14619;SDS011;32125;48.518;9.050;2023-07-13T06:37:48;5.82;;;2.08;;
14619;SDS011;32125;48.518;9.050;2023-07-13T06:40:16;3.05;;;1.80;;
14619;SDS011;32125;48.518;9.050;2023-07-13T06:42:42;2.05;;;1.50;;
14619;SDS011;32125;48.518;9.050;2023-07-13T06:45:08;5.35;;;1.80;;
14619;SDS011;32125;48.518;9.050;2023-07-13T06:47:34;6.65;;;1.67;;
14619;SDS011;32125;48.518;9.050;2023-07-13T06:50:00;3.45;;;1.90;;
14619;SDS011;32125;48.518;9.050;2023-07-13T06:52:26;3.40;;;1.60;;
14619;SDS011;32125;48.518;9.050;2023-07-13T06:54:52;3.13;;;1.58;;
14619;SDS011;32125;48.518;9.050;2023-07-13T06:57:21;3.47;;;1.75;;
14619;SDS011;32125;48.518;9.050;2023-07-13T06:59:49;2.05;;;1.38;;
14619;SDS011;32125;48.518;9.050;2023-07-13T07:02:15;2.45;;;1.65;;
14619;SDS011;32125;48.518;9.050;2023-07-13T07:04:44;4.10;;;1.48;;
14619;SDS011;32125;48.518;9.050;2023-07-13T07:07:10;3.72;;;1.60;;
14619;SDS011;32125;48.518;9.050;2023-07-13T07:09:38;4.18;;;1.50;;
14619;SDS011;32125;48.518;9.050;2023-07-13T07:12:04;4.85;;;1.40;;
14619;SDS011;32125;48.518;9.050;2023-07-13T07:14:30;3.95;;;1.60;;
14619;SDS011;32125;48.518;9.050;2023-07-13T07:16:59;1.60;;;1.50;;
14619;SDS011;32125;48.518;9.050;2023-07-13T07:19:27;4.28;;;1.60;;
14619;SDS011;32125;48.518;9.050;2023-07-13T07:21:54;3.95;;;1.50;;
14619;SDS011;32125;48.518;9.050;2023-07-13T07:24:22;2.38;;;1.23;;
14619;SDS011;32125;48.518;9.050;2023-07-13T07:26:50;2.25;;;1.45;;
14619;SDS011;32125;48.518;9.050;2023-07-13T07:29:16;3.08;;;1.27;;
14619;SDS011;32125;48.518;9.050;2023-07-13T07:31:42;1.98;;;1.38;;
14619;SDS011;32125;48.518;9.050;2023-07-13T07:34:08;4.05;;;1.45;;
14619;SDS011;32125;48.518;9.050;2023-07-13T07:36:34;3.92;;;1.50;;
14619;SDS011;32125;48.518;9.050;2023-07-13T07:39:02;3.45;;;1.33;;
14619;SDS011;32125;48.518;9.050;2023-07-13T07:41:28;2.97;;;1.38;;
14619;SDS011;32125;48.518;9.050;2023-07-13T07:43:54;3.15;;;1.58;;
14619;SDS011;32125;48.518;9.050;2023-07-13T07:46:20;3.05;;;1.42;;
14619;SDS011;32125;48.518;9.050;2023-07-13T07:48:48;1.55;;;1.40;;
14619;SDS011;32125;48.518;9.050;2023-07-13T07:51:14;3.78;;;1.25;;
14619;SDS011;32125;48.518;9.050;2023-07-13T07:53:42;4.28;;;1.35;;
14619;SDS011;32125;48.518;9.050;2023-07-13T07:56:08;1.67;;;1.15;;
14619;SDS011;32125;48.518;9.050;2023-07-13T07:58:35;1.58;;;1.10;;
14619;SDS011;32125;48.518;9.050;2023-07-13T08:01:04;1.23;;;0.80;;
14619;SDS011;32125;48.518;9.050;2023-07-13T08:03:31;3.25;;;1.13;;
14619;SDS011;32125;48.518;9.050;2023-07-13T08:05:57;3.60;;;1.42;;
14619;SDS011;32125;48.518;9.050;2023-07-13T08:08:22;2.20;;;1.20;;
14619;SDS011;32125;48.518;9.050;2023-07-13T08:10:48;2.60;;;1.10;;
14619;SDS011;32125;48.518;9.050;2023-07-13T08:13:16;2.47;;;1.00;;
14619;SDS011;32125;48.518;9.050;2023-07-13T08:15:42;3.00;;;1.20;;
14619;SDS011;32125;48.518;9.050;2023-07-13T08:18:11;2.20;;;1.00;;
14619;SDS011;32125;48.518;9.050;2023-07-13T08:20:40;2.97;;;1.10;;
14619;SDS011;32125;48.518;9.050;2023-07-13T08:23:09;1.27;;;0.95;;
14619;SDS011;32125;48.518;9.050;2023-07-13T08:25:38;4.18;;;1.10;;
14619;SDS011;32125;48.518;9.050;2023-07-13T08:28:06;1.67;;;1.10;;
14619;SDS011;32125;48.518;9.050;2023-07-13T08:30:32;2.95;;;1.00;;
14619;SDS011;32125;48.518;9.050;2023-07-13T08:32:58;1.50;;;0.95;;
14619;SDS011;32125;48.518;9.050;2023-07-13T08:35:23;1.73;;;0.90;;
14619;SDS011;32125;48.518;9.050;2023-07-13T08:37:52;1.23;;;1.00;;
14619;SDS011;32125;48.518;9.050;2023-07-13T08:40:22;1.50;;;1.10;;
14619;SDS011;32125;48.518;9.050;2023-07-13T08:42:52;5.35;;;1.20;;
14619;SDS011;32125;48.518;9.050;2023-07-13T08:45:25;3.78;;;1.27;;
14619;SDS011;32125;48.518;9.050;2023-07-13T08:53:19;1.33;;;1.00;;
14619;SDS011;32125;48.518;9.050;2023-07-13T08:55:45;1.00;;;0.90;;
14619;SDS011;32125;48.518;9.050;2023-07-13T08:58:12;2.80;;;1.08;;
14619;SDS011;32125;48.518;9.050;2023-07-13T09:03:50;0.95;;;0.95;;
14619;SDS011;32125;48.518;9.050;2023-07-13T09:12:12;2.67;;;1.05;;
14619;SDS011;32125;48.518;9.050;2023-07-13T09:14:51;4.25;;;1.23;;
14619;SDS011;32125;48.518;9.050;2023-07-13T09:17:41;1.70;;;1.08;;
14619;SDS011;32125;48.518;9.050;2023-07-13T09:22:55;3.13;;;1.00;;
14619;SDS011;32125;48.518;9.050;2023-07-13T09:25:27;2.58;;;1.10;;
14619;SDS011;32125;48.518;9.050;2023-07-13T09:27:56;3.17;;;1.00;;
14619;SDS011;32125;48.518;9.050;2023-07-13T09:30:25;1.20;;;0.98;;
14619;SDS011;32125;48.518;9.050;2023-07-13T09:32:55;2.13;;;1.02;;
14619;SDS011;32125;48.518;9.050;2023-07-13T09:35:26;2.58;;;1.00;;
14619;SDS011;32125;48.518;9.050;2023-07-13T09:37:57;1.20;;;1.10;;
14619;SDS011;32125;48.518;9.050;2023-07-13T09:40:38;2.80;;;1.02;;
14619;SDS011;32125;48.518;9.050;2023-07-13T09:43:10;2.65;;;1.20;;
14619;SDS011;32125;48.518;9.050;2023-07-13T09:45:38;7.60;;;1.20;;
14619;SDS011;32125;48.518;9.050;2023-07-13T09:48:14;2.28;;;1.08;;
14619;SDS011;32125;48.518;9.050;2023-07-13T09:50:41;1.98;;;0.93;;
14619;SDS011;32125;48.518;9.050;2023-07-13T09:53:18;3.72;;;1.15;;
14619;SDS011;32125;48.518;9.050;2023-07-13T09:55:48;4.43;;;1.10;;
14619;SDS011;32125;48.518;9.050;2023-07-13T09:58:16;3.17;;;1.17;;
14619;SDS011;32125;48.518;9.050;2023-07-13T10:00:53;3.17;;;1.25;;
14619;SDS011;32125;48.518;9.050;2023-07-13T10:03:23;4.68;;;1.25;;
14619;SDS011;32125;48.518;9.050;2023-07-13T10:05:57;2.72;;;1.10;;
14619;SDS011;32125;48.518;9.050;2023-07-13T10:08:27;3.03;;;1.10;;
14619;SDS011;32125;48.518;9.050;2023-07-13T10:11:02;1.48;;;1.00;;
14619;SDS011;32125;48.518;9.050;2023-07-13T10:13:36;3.50;;;1.20;;
14619;SDS011;32125;48.518;9.050;2023-07-13T10:16:06;2.67;;;1.10;;
14619;SDS011;32125;48.518;9.050;2023-07-13T10:21:29;1.55;;;1.00;;
14619;SDS011;32125;48.518;9.050;2023-07-13T10:24:17;1.77;;;1.00;;
14619;SDS011;32125;48.518;9.050;2023-07-13T10:26:47;2.22;;;1.20;;
14619;SDS011;32125;48.518;9.050;2023-07-13T10:29:37;3.35;;;0.90;;
14619;SDS011;32125;48.518;9.050;2023-07-13T10:32:09;1.13;;;0.90;;
14619;SDS011;32125;48.518;9.050;2023-07-13T10:34:35;3.03;;;1.00;;
14619;SDS011;32125;48.518;9.050;2023-07-13T10:37:01;2.20;;;1.00;;
14619;SDS011;32125;48.518;9.050;2023-07-13T10:39:30;2.40;;;1.10;;
14619;SDS011;32125;48.518;9.050;2023-07-13T10:42:00;1.95;;;0.98;;
14619;SDS011;32125;48.518;9.050;2023-07-13T10:44:28;2.25;;;1.00;;
14619;SDS011;32125;48.518;9.050;2023-07-13T10:46:55;2.05;;;1.10;;
14619;SDS011;32125;48.518;9.050;2023-07-13T10:49:23;2.00;;;1.10;;
14619;SDS011;32125;48.518;9.050;2023-07-13T10:51:51;3.10;;;1.10;;
14619;SDS011;32125;48.518;9.050;2023-07-13T10:56:44;3.40;;;1.00;;
14619;SDS011;32125;48.518;9.050;2023-07-13T11:04:39;3.10;;;1.15;;
14619;SDS011;32125;48.518;9.050;2023-07-13T11:07:10;1.85;;;1.15;;
14619;SDS011;32125;48.518;9.050;2023-07-13T11:09:49;4.55;;;1.15;;
14619;SDS011;32125;48.518;9.050;2023-07-13T11:22:49;2.58;;;1.10;;
14619;SDS011;32125;48.518;9.050;2023-07-13T11:27:51;1.23;;;1.10;;
14619;SDS011;32125;48.518;9.050;2023-07-13T11:35:33;2.05;;;1.10;;
14619;SDS011;32125;48.518;9.050;2023-07-13T11:38:08;1.25;;;0.88;;
14619;SDS011;32125;48.518;9.050;2023-07-13T11:40:43;2.03;;;1.17;;
14619;SDS011;32125;48.518;9.050;2023-07-13T11:43:11;2.35;;;1.00;;
14619;SDS011;32125;48.518;9.050;2023-07-13T11:45:41;2.75;;;1.40;;
14619;SDS011;32125;48.518;9.050;2023-07-13T11:48:21;1.55;;;1.20;;
14619;SDS011;32125;48.518;9.050;2023-07-13T11:50:51;1.73;;;1.00;;
14619;SDS011;32125;48.518;9.050;2023-07-13T11:53:26;2.22;;;1.15;;
14619;SDS011;32125;48.518;9.050;2023-07-13T11:55:54;3.55;;;0.98;;
14619;SDS011;32125;48.518;9.050;2023-07-13T11:58:22;2.85;;;1.10;;
14619;SDS011;32125;48.518;9.050;2023-07-13T12:00:50;1.08;;;0.98;;
14619;SDS011;32125;48.518;9.050;2023-07-13T12:03:20;2.70;;;1.10;;
14619;SDS011;32125;48.518;9.050;2023-07-13T12:05:55;4.38;;;1.00;;
14619;SDS011;32125;48.518;9.050;2023-07-13T12:08:23;1.20;;;1.00;;
14619;SDS011;32125;48.518;9.050;2023-07-13T12:10:55;3.00;;;1.00;;
14619;SDS011;32125;48.518;9.050;2023-07-13T12:13:23;5.35;;;0.90;;
14619;SDS011;32125;48.518;9.050;2023-07-13T12:15:48;1.20;;;0.98;;
14619;SDS011;32125;48.518;9.050;2023-07-13T12:18:27;3.15;;;1.10;;
14619;SDS011;32125;48.518;9.050;2023-07-13T12:20:57;1.98;;;0.90;;
14619;SDS011;32125;48.518;9.050;2023-07-13T12:25:53;3.08;;;0.98;;
14619;SDS011;32125;48.518;9.050;2023-07-13T12:28:20;1.25;;;1.00;;
14619;SDS011;32125;48.518;9.050;2023-07-13T12:30:49;1.83;;;1.00;;
14619;SDS011;32125;48.518;9.050;2023-07-13T12:33:15;1.75;;;1.05;;
14619;SDS011;32125;48.518;9.050;2023-07-13T12:35:45;1.70;;;1.08;;
14619;SDS011;32125;48.518;9.050;2023-07-13T12:38:12;1.17;;;1.00;;
14619;SDS011;32125;48.518;9.050;2023-07-13T12:40:38;2.25;;;1.27;;
14619;SDS011;32125;48.518;9.050;2023-07-13T12:43:09;1.90;;;1.00;;
14619;SDS011;32125;48.518;9.050;2023-07-13T12:45:40;3.00;;;1.00;;
14619;SDS011;32125;48.518;9.050;2023-07-13T12:48:29;2.30;;;1.10;;
14619;SDS011;32125;48.518;9.050;2023-07-13T12:51:00;3.05;;;1.00;;
14619;SDS011;32125;48.518;9.050;2023-07-13T12:53:29;5.25;;;1.20;;
14619;SDS011;32125;48.518;9.050;2023-07-13T12:56:01;1.27;;;1.05;;
14619;SDS011;32125;48.518;9.050;2023-07-13T13:00:57;2.28;;;1.10;;
14619;SDS011;32125;48.518;9.050;2023-07-13T13:03:40;1.67;;;1.10;;
14619;SDS011;32125;48.518;9.050;2023-07-13T13:06:27;1.55;;;1.10;;
14619;SDS011;32125;48.518;9.050;2023-07-13T13:08:56;3.78;;;1.20;;
14619;SDS011;32125;48.518;9.050;2023-07-13T13:11:25;3.20;;;0.90;;
14619;SDS011;32125;48.518;9.050;2023-07-13T13:13:54;2.00;;;1.40;;
14619;SDS011;32125;48.518;9.050;2023-07-13T13:16:24;1.63;;;1.00;;
14619;SDS011;32125;48.518;9.050;2023-07-13T13:18:57;2.53;;;1.15;;
14619;SDS011;32125;48.518;9.050;2023-07-13T13:21:29;1.55;;;0.90;;
14619;SDS011;32125;48.518;9.050;2023-07-13T13:23:57;1.83;;;1.20;;
14619;SDS011;32125;48.518;9.050;2023-07-13T13:26:23;1.85;;;1.10;;
14619;SDS011;32125;48.518;9.050;2023-07-13T13:28:49;3.22;;;1.30;;
14619;SDS011;32125;48.518;9.050;2023-07-13T13:31:15;3.13;;;1.02;;
14619;SDS011;32125;48.518;9.050;2023-07-13T13:33:42;4.60;;;1.40;;
14619;SDS011;32125;48.518;9.050;2023-07-13T13:36:17;1.70;;;1.10;;
14619;SDS011;32125;48.518;9.050;2023-07-13T13:38:44;1.58;;;0.98;;
14619;SDS011;32125;48.518;9.050;2023-07-13T13:41:11;2.72;;;1.00;;
14619;SDS011;32125;48.518;9.050;2023-07-13T13:43:39;2.40;;;1.10;;
14619;SDS011;32125;48.518;9.050;2023-07-13T13:46:11;2.15;;;1.00;;
14619;SDS011;32125;48.518;9.050;2023-07-13T13:48:38;2.92;;;1.10;;
14619;SDS011;32125;48.518;9.050;2023-07-13T13:51:13;1.38;;;1.20;;
14619;SDS011;32125;48.518;9.050;2023-07-13T13:53:48;2.30;;;0.95;;
14619;SDS011;32125;48.518;9.050;2023-07-13T13:56:14;3.75;;;1.27;;
14619;SDS011;32125;48.518;9.050;2023-07-13T13:58:42;4.85;;;1.27;;
14619;SDS011;32125;48.518;9.050;2023-07-13T14:01:13;1.10;;;1.00;;
14619;SDS011;32125;48.518;9.050;2023-07-13T14:03:42;1.38;;;1.05;;
14619;SDS011;32125;48.518;9.050;2023-07-13T14:06:15;1.38;;;1.08;;
14619;SDS011;32125;48.518;9.050;2023-07-13T14:08:41;1.65;;;1.20;;
14619;SDS011;32125;48.518;9.050;2023-07-13T14:11:11;4.50;;;1.27;;
14619;SDS011;32125;48.518;9.050;2023-07-13T14:13:40;2.38;;;1.25;;
14619;SDS011;32125;48.518;9.050;2023-07-13T14:16:20;1.70;;;0.98;;
14619;SDS011;32125;48.518;9.050;2023-07-13T14:18:47;3.47;;;1.05;;
14619;SDS011;32125;48.518;9.050;2023-07-13T14:21:17;1.65;;;1.17;;
14619;SDS011;32125;48.518;9.050;2023-07-13T14:23:45;3.10;;;1.20;;
14619;SDS011;32125;48.518;9.050;2023-07-13T14:26:12;4.43;;;1.00;;
14619;SDS011;32125;48.518;9.050;2023-07-13T14:28:46;3.90;;;1.00;;
14619;SDS011;32125;48.518;9.050;2023-07-13T14:31:18;1.85;;;1.02;;
14619;SDS011;32125;48.518;9.050;2023-07-13T14:33:44;1.15;;;1.08;;
14619;SDS011;32125;48.518;9.050;2023-07-13T14:36:20;2.13;;;0.90;;
14619;SDS011;32125;48.518;9.050;2023-07-13T14:38:51;4.38;;;1.23;;
14619;SDS011;32125;48.518;9.050;2023-07-13T14:41:18;3.17;;;1.02;;
14619;SDS011;32125;48.518;9.050;2023-07-13T14:43:44;1.70;;;1.10;;
14619;SDS011;32125;48.518;9.050;2023-07-13T14:46:16;4.00;;;1.10;;
14619;SDS011;32125;48.518;9.050;2023-07-13T14:52:13;2.38;;;0.90;;
14619;SDS011;32125;48.518;9.050;2023-07-13T14:54:47;1.45;;;1.00;;
14619;SDS011;32125;48.518;9.050;2023-07-13T14:57:14;2.28;;;1.00;;
14619;SDS011;32125;48.518;9.050;2023-07-13T14:59:41;5.00;;;1.10;;
14619;SDS011;32125;48.518;9.050;2023-07-13T15:05:05;1.23;;;1.13;;
14619;SDS011;32125;48.518;9.050;2023-07-13T15:07:38;1.40;;;1.10;;
14619;SDS011;32125;48.518;9.050;2023-07-13T15:10:16;1.83;;;1.08;;
14619;SDS011;32125;48.518;9.050;2023-07-13T15:12:43;1.30;;;1.20;;
14619;SDS011;32125;48.518;9.050;2023-07-13T15:15:09;2.95;;;1.15;;
14619;SDS011;32125;48.518;9.050;2023-07-13T15:17:39;2.95;;;1.27;;
14619;SDS011;32125;48.518;9.050;2023-07-13T15:20:12;2.58;;;1.25;;
14619;SDS011;32125;48.518;9.050;2023-07-13T15:22:46;4.03;;;1.33;;
14619;SDS011;32125;48.518;9.050;2023-07-13T15:25:15;3.45;;;1.25;;
14619;SDS011;32125;48.518;9.050;2023-07-13T15:27:49;2.22;;;1.23;;
14619;SDS011;32125;48.518;9.050;2023-07-13T15:30:16;4.10;;;1.20;;
14619;SDS011;32125;48.518;9.050;2023-07-13T15:32:42;2.63;;;1.10;;
14619;SDS011;32125;48.518;9.050;2023-07-13T15:35:19;1.40;;;1.20;;
14619;SDS011;32125;48.518;9.050;2023-07-13T15:37:47;3.70;;;1.13;;
14619;SDS011;32125;48.518;9.050;2023-07-13T15:40:13;2.15;;;1.17;;
14619;SDS011;32125;48.518;9.050;2023-07-13T15:42:46;1.92;;;1.20;;
14619;SDS011;32125;48.518;9.050;2023-07-13T15:47:48;3.78;;;1.30;;
14619;SDS011;32125;48.518;9.050;2023-07-13T15:50:20;3.97;;;1.20;;
14619;SDS011;32125;48.518;9.050;2023-07-13T15:52:49;1.75;;;1.30;;
14619;SDS011;32125;48.518;9.050;2023-07-13T15:55:17;1.80;;;1.30;;
14619;SDS011;32125;48.518;9.050;2023-07-13T15:57:48;3.53;;;1.42;;
14619;SDS011;32125;48.518;9.050;2023-07-13T16:02:49;2.05;;;1.40;;